Dalton, New Hampshire
Current Conditions -  °F | °C
As of 11:52 AM on Thursday 27 Nov 2014 (Local Time) from KHIE Reporting Station
Overcast Overcast  
Wind Chill: 23°   Ceiling: 1700
Heat Index: 28°   Visibility: 10mi
Dew Point: 20°   Wind: 5mph
Humidity: 72%   Direction: 350°N
Pressure: 29.94"   Gusts: NA
Location:  44.3374°N, 71.528°W
Report Text: KHIE 271652Z AUTO 35004KT 10SM OVC017 M02/M07 A2994 RMK AO2 SLP155 T10221067
Loading
Personal Weather Stations






























Interactive Weather Map New forecast layout! Learn more

10-Day Weather Forecast

Advertisements
Track Severe Weather on mobile